Impacts METAR Board
IDs:

KLGA - New York/La Guardia, NY, US

Updated at: 2000 UTC 08 Feb 2023
Potential Impact None Slight Moderate High
Time 08/08Z 08/09Z 08/10Z 08/11Z 08/12Z 08/13Z 08/14Z 08/15Z 08/16Z 08/17Z 08/18Z 08/19Z 08/20Z
Temp41 40 40 41 39 42 45 45 46 48 49 50 51
Dewpt32 32 31 31 31 32 32 30 27 26 26 26 26
Altim30.08 30.07 30.09 30.10 30.12 30.14 30.17 30.19 30.22 30.21 30.20 30.18 30.19
VIS10 10 10 8 9 9 10 10 10 10 10 10 10
CIG-- -- -- -- -- -- -- -- -- -- -- -- --
CoverSCTFEWFEWFEWFEWFEWFEWSCTFEWFEWFEWFEWFEW
FltCatVFRVFRVFRVFRVFRVFRVFRVFRVFRVFRVFRVFRVFR
WX--------------------------
WDir230230340300280300310320320330320310300
WSpd6 5 3 12 3 10 15 15 17 14 10 8 8
WGst-- -- -- -- -- -- -- 25 28 -- -- -- 16
Raw hourly METARs
KLGA 080751Z 23006KT 10SM SCT180 SCT250 05/00 A3008 RMK AO2 SLP184 T00500000
KLGA 080851Z 23005KT 10SM FEW250 04/00 A3007 RMK AO2 SLP181 T00440000 56007
KLGA 080951Z 34003KT 10SM FEW250 04/M01 A3009 RMK AO2 SLP188 T00441006
KLGA 081051Z 30012KT 8SM FEW250 05/M01 A3010 RMK AO2 SLP193 T00501006 $
KLGA 081151Z 28003KT 9SM FEW180 FEW250 04/M01 A3012 RMK AO2 SLP198 70001 T00391006 10050 20039 51017 $
KLGA 081251Z 30010KT 9SM FEW180 FEW250 06/00 A3014 RMK AO2 SLP205 T00560000 $
KLGA 081351Z 31015KT 10SM FEW040 FEW250 07/00 A3017 RMK AO2 SLP215 T00720000
KLGA 081451Z 32015G25KT 10SM SCT045 SCT250 07/M01 A3019 RMK AO2 SLP223 T00721011 53025
KLGA 081551Z 32017G28KT 10SM FEW040 08/M03 A3022 RMK AO2 PK WND 32028/1542 SLP232 T00781028
KLGA 081651Z 33014KT 10SM FEW040 09/M03 A3021 RMK AO2 SLP231 T00891033
KLGA 081751Z COR 32010KT 10SM FEW040 FEW250 09/M03 A3020 RMK AO2 SLP225 T00941033 10094 20039 50002
KLGA 081851Z 31008KT 10SM FEW045 FEW250 10/M03 A3018 RMK AO2 SLP220 T01001033
KLGA 081951Z 30008G16KT 10SM FEW250 11/M03 A3019 RMK AO2 SLP223 T01061033



Page loaded:  20:46 UTC  |   12:46 PM Pacific  |   01:46 PM Mountain  |   02:46 PM Central  |   03:46 PM Eastern

 

ADVISORIES

FORECASTS

FORECASTS

OBSERVATIONS

USER TOOLS

ABOUT US